Aérodrome :
LOGIN :

S'inscrire | Disclaimer

   EN    FR    IT 

 










Légende :    VFR   VFR Marginal   IFR   IFR Intensif   IFR Très Intensif
Visi : 
Plafond : 
>= 8 km
>= 3000ft
5 à 8 km
1000 à 3000 ft
1500m à 5 km
500 à 1000 ft
800 à 1500m
200 à 500 ft
< 800m
< 200 ft
Symboles :   Orages  Brouillard  Fortes neiges  Fortes précipitations  Vent > 20 kt
SIGMETs :   Divers  Orages  Givrage  Turbulence  Onde Orograph.  Cendres Volcan.







- Altitude de l'aérodrome : 38 ft
- Code IATA : BOH
- Voir les cartes d'approche


EGHH - Bournemouth

DERNIER METAR :
  • 212350Z 27018KT 9999 -RA SCT027 11/08 Q1008

METARs EXPIRÉS :
  • 212320Z 27018KT 220V310 9999 FEW027 11/08 Q1008
  • 212250Z 27018KT 9999 -RA FEW028 12/08 Q1007
  • 212220Z 26017G27KT 9999 SCT028 12/08 Q1007
  • 212150Z 26018KT 9999 SCT027 12/08 Q1007

TAF TAF EGHH
Valide du 22 à 00h jusqu'au 22 à 09h UTC


212302Z 2200/2209 27016KT 9999 FEW015 SCT030
TEMPO 2200/2209 6000 SHRA
PROB30
TEMPO 2200/2203 28020G30KT 4000 +SHRA BKN012
ATIS : +44 1202 364 151
Météo : +44 1202 364 158 (TAF)
Pas de NOTAMs connus pour ce terrain.
1 SIGMET publié pour la FIR London (EGTT) :
 
Turbulence forte
EGTT SIGMET 06 VALID 212200/220200 EGRR
EGTT LONDON FIR SEV TURB FCST WI N5040 E00128 - N5000 W00015 - N5000 W00200 - N4926 W00458 - N5125 W00714 - N5220 W00530 - N5500 W00530 - N5058 E00128 - N5040 E00128 SFC/FL060 MOV NE 05KT WKN=



MET'MAP, la Météo Aéronautique d'un coup d'oeil ! - Copyright ORBIFLY Décembre 2007 - Disclaimer

ORBIFLY MET'MAP TEAM :

Programmation & Développement : Alexandra Zaïnal
Conception & Développement : Baudouin d'Aumeries
Co-Programmation & Développement : Marc-Olivier Méhu
Soutien technique & logistique : Manuel Goepfert

Contact : metmap@orbifly.com




SOURCES & CREDITS :

   NOAA